Weather at Campo di Volo Arcobaleno

Public forecast

Using degrees Celsius for public forecast. Weather courtesy of forecast.io.

Closest aviation weather report (METAR) to Campo di Volo Arcobaleno

Closest report is Bologna Guglielmo Marconi Airport, 3.0 nm (5.6 km) NE. Retrieved 2022/06/29 00:20 UTC (23 minutes ago):

LIPE 290020Z AUTO 27008KT 9999 BKN150/// 23/19 Q1011

Closest aviation forecast (TAF) to Campo di Volo Arcobaleno

Closest forecast is Bologna Guglielmo Marconi Airport, 3.0 nm (5.6 km) NE. Retrieved 2022-06-29 00:00 UTC (43 minutes ago):

TAF LIPE 282300Z 2900/2924 29008KT 9999 SCT040